map of PKW home
PKW - Airport
Location
City:  Selebi-Phikwe, Central, Botswana
Name:Selebi-Phikwe Airport
ICAO:FBSP
IATA:PKW

Details
Type:Airport (Aerodrome, Airfield)
Use:International (customs port of entry)
Latitude:2203'30"S (-22.058349)
Longitude:2749'44"E (27.828767)
Datum:other
Elevation:2925 ft (892 m)
Variation:12.76W (WMM2015 magnetic declination)
-0.04 annual change
Runways:1
Longest:5840 × 98 ft (1780 × 30 m), paved

Time
Time Zone:UTC+2
Local Time:

Weather
METAR:FBSP 211600Z 10011KT CAVOK 20/10 Q1026

Related Locations
Nearby:
Farthest:ITO: 12194 mi / 19624 km
Hilo [Hilo Intl], Hawaii, HI, US

Find:

   beyond  
but within

Other Information
Maps:
NOTAMs:
Links:
Sources:

  
  • flag of Botswana
  

Sectional Chart

Flight Planning
at skyvector.com

Satellite Image

Google Maps Satellite view

 

Copyright © 2004-2018 Karl L. Swartz. All rights reserved.
The Great Circle Mapper name and logo are trademarks of the Great Circle Mapper.
All other trademarks mentioned herein belong to their respective owners.
Please see credits for attibutions and further copyright information.

  Follow gcmap on Facebook Follow gcmap on Twitter Follow gcmap on Google+ GCmap on LinkedIn

hCard Microformat

Geo Microformat